sensor_id;sensor_type;location;lat;lon;timestamp;P1;durP1;ratioP1;P2;durP2;ratioP2
34828;SDS011;21042;47.620;12.188;2024-02-23T00:01:09;0.50;;;0.20;;
34828;SDS011;21042;47.620;12.188;2024-02-23T00:03:38;0.52;;;0.20;;
34828;SDS011;21042;47.620;12.188;2024-02-23T00:06:05;0.77;;;0.28;;
34828;SDS011;21042;47.620;12.188;2024-02-23T00:08:32;0.88;;;0.20;;
34828;SDS011;21042;47.620;12.188;2024-02-23T00:10:59;2.40;;;0.10;;
34828;SDS011;21042;47.620;12.188;2024-02-23T00:13:26;0.20;;;0.10;;
34828;SDS011;21042;47.620;12.188;2024-02-23T00:15:53;0.45;;;0.08;;
34828;SDS011;21042;47.620;12.188;2024-02-23T00:18:20;0.55;;;0.08;;
34828;SDS011;21042;47.620;12.188;2024-02-23T00:20:47;0.10;;;0.10;;
34828;SDS011;21042;47.620;12.188;2024-02-23T00:23:14;0.03;;;0.00;;
34828;SDS011;21042;47.620;12.188;2024-02-23T00:25:41;0.00;;;0.00;;
34828;SDS011;21042;47.620;12.188;2024-02-23T00:28:08;0.15;;;0.05;;
34828;SDS011;21042;47.620;12.188;2024-02-23T00:30:35;0.00;;;0.00;;
34828;SDS011;21042;47.620;12.188;2024-02-23T00:33:02;0.00;;;0.00;;
34828;SDS011;21042;47.620;12.188;2024-02-23T00:35:29;0.00;;;0.00;;
34828;SDS011;21042;47.620;12.188;2024-02-23T00:37:56;0.57;;;0.03;;
34828;SDS011;21042;47.620;12.188;2024-02-23T00:40:23;0.00;;;0.00;;
34828;SDS011;21042;47.620;12.188;2024-02-23T00:42:50;0.38;;;0.00;;
34828;SDS011;21042;47.620;12.188;2024-02-23T00:45:17;0.00;;;0.00;;
34828;SDS011;21042;47.620;12.188;2024-02-23T00:47:44;0.73;;;0.00;;
34828;SDS011;21042;47.620;12.188;2024-02-23T00:50:13;0.00;;;0.00;;
34828;SDS011;21042;47.620;12.188;2024-02-23T00:52:40;0.47;;;0.00;;
34828;SDS011;21042;47.620;12.188;2024-02-23T00:55:07;0.20;;;0.10;;
34828;SDS011;21042;47.620;12.188;2024-02-23T00:57:35;0.00;;;0.00;;
34828;SDS011;21042;47.620;12.188;2024-02-23T01:02:31;0.17;;;0.00;;
34828;SDS011;21042;47.620;12.188;2024-02-23T01:04:59;0.00;;;0.00;;
34828;SDS011;21042;47.620;12.188;2024-02-23T01:07:26;0.43;;;0.00;;
34828;SDS011;21042;47.620;12.188;2024-02-23T01:09:54;1.27;;;0.00;;
34828;SDS011;21042;47.620;12.188;2024-02-23T01:12:21;0.00;;;0.00;;
34828;SDS011;21042;47.620;12.188;2024-02-23T01:14:47;0.00;;;0.00;;
34828;SDS011;21042;47.620;12.188;2024-02-23T01:17:15;0.00;;;0.00;;
34828;SDS011;21042;47.620;12.188;2024-02-23T01:19:42;0.00;;;0.00;;
34828;SDS011;21042;47.620;12.188;2024-02-23T01:22:10;0.00;;;0.00;;
34828;SDS011;21042;47.620;12.188;2024-02-23T01:24:37;0.00;;;0.00;;
34828;SDS011;21042;47.620;12.188;2024-02-23T01:27:04;0.32;;;0.00;;
34828;SDS011;21042;47.620;12.188;2024-02-23T01:29:31;0.25;;;0.00;;
34828;SDS011;21042;47.620;12.188;2024-02-23T01:31:59;0.00;;;0.00;;
34828;SDS011;21042;47.620;12.188;2024-02-23T01:34:26;0.00;;;0.00;;
34828;SDS011;21042;47.620;12.188;2024-02-23T01:36:53;0.00;;;0.00;;
34828;SDS011;21042;47.620;12.188;2024-02-23T01:39:19;1.38;;;0.00;;
34828;SDS011;21042;47.620;12.188;2024-02-23T01:41:47;0.00;;;0.00;;
34828;SDS011;21042;47.620;12.188;2024-02-23T01:44:14;0.00;;;0.00;;
34828;SDS011;21042;47.620;12.188;2024-02-23T01:46:43;1.27;;;0.55;;
34828;SDS011;21042;47.620;12.188;2024-02-23T01:49:10;0.00;;;0.00;;
34828;SDS011;21042;47.620;12.188;2024-02-23T01:51:37;0.00;;;0.00;;
34828;SDS011;21042;47.620;12.188;2024-02-23T01:54:05;0.00;;;0.00;;
34828;SDS011;21042;47.620;12.188;2024-02-23T01:56:32;0.00;;;0.00;;
34828;SDS011;21042;47.620;12.188;2024-02-23T01:59:02;0.00;;;0.00;;
34828;SDS011;21042;47.620;12.188;2024-02-23T02:01:30;0.00;;;0.00;;
34828;SDS011;21042;47.620;12.188;2024-02-23T02:03:58;0.00;;;0.00;;
34828;SDS011;21042;47.620;12.188;2024-02-23T02:08:52;0.10;;;0.00;;
34828;SDS011;21042;47.620;12.188;2024-02-23T02:11:20;0.20;;;0.00;;
34828;SDS011;21042;47.620;12.188;2024-02-23T02:16:14;1.13;;;0.08;;
34828;SDS011;21042;47.620;12.188;2024-02-23T02:18:41;0.60;;;0.10;;
34828;SDS011;21042;47.620;12.188;2024-02-23T02:21:07;0.47;;;0.00;;
34828;SDS011;21042;47.620;12.188;2024-02-23T02:23:34;0.00;;;0.00;;
34828;SDS011;21042;47.620;12.188;2024-02-23T02:26:03;0.03;;;0.00;;
34828;SDS011;21042;47.620;12.188;2024-02-23T02:28:30;0.10;;;0.00;;
34828;SDS011;21042;47.620;12.188;2024-02-23T02:30:57;1.65;;;0.08;;
34828;SDS011;21042;47.620;12.188;2024-02-23T02:33:24;1.88;;;0.10;;
34828;SDS011;21042;47.620;12.188;2024-02-23T02:35:51;0.00;;;0.00;;
34828;SDS011;21042;47.620;12.188;2024-02-23T02:38:18;0.10;;;0.00;;
34828;SDS011;21042;47.620;12.188;2024-02-23T02:40:44;0.00;;;0.00;;
34828;SDS011;21042;47.620;12.188;2024-02-23T02:43:11;0.65;;;0.10;;
34828;SDS011;21042;47.620;12.188;2024-02-23T02:45:38;0.00;;;0.00;;
34828;SDS011;21042;47.620;12.188;2024-02-23T02:48:05;1.13;;;0.28;;
34828;SDS011;21042;47.620;12.188;2024-02-23T02:52:59;0.13;;;0.10;;
34828;SDS011;21042;47.620;12.188;2024-02-23T02:55:26;1.75;;;0.00;;
34828;SDS011;21042;47.620;12.188;2024-02-23T02:57:53;0.10;;;0.00;;
34828;SDS011;21042;47.620;12.188;2024-02-23T03:00:20;0.10;;;0.03;;
34828;SDS011;21042;47.620;12.188;2024-02-23T03:02:46;0.00;;;0.00;;
34828;SDS011;21042;47.620;12.188;2024-02-23T03:05:13;0.15;;;0.00;;
34828;SDS011;21042;47.620;12.188;2024-02-23T03:07:40;0.10;;;0.00;;
34828;SDS011;21042;47.620;12.188;2024-02-23T03:10:07;1.17;;;0.80;;
34828;SDS011;21042;47.620;12.188;2024-02-23T03:12:34;2.53;;;0.15;;
34828;SDS011;21042;47.620;12.188;2024-02-23T03:15:01;0.00;;;0.00;;
34828;SDS011;21042;47.620;12.188;2024-02-23T03:17:29;0.20;;;0.00;;
34828;SDS011;21042;47.620;12.188;2024-02-23T03:22:24;0.17;;;0.10;;
34828;SDS011;21042;47.620;12.188;2024-02-23T03:24:51;0.32;;;0.17;;
34828;SDS011;21042;47.620;12.188;2024-02-23T03:27:18;1.98;;;0.20;;
34828;SDS011;21042;47.620;12.188;2024-02-23T03:29:46;1.02;;;0.28;;
34828;SDS011;21042;47.620;12.188;2024-02-23T03:32:13;0.32;;;0.13;;
34828;SDS011;21042;47.620;12.188;2024-02-23T03:34:39;2.30;;;0.30;;
34828;SDS011;21042;47.620;12.188;2024-02-23T03:37:06;1.83;;;0.30;;
34828;SDS011;21042;47.620;12.188;2024-02-23T03:39:33;0.15;;;0.15;;
34828;SDS011;21042;47.620;12.188;2024-02-23T03:42:00;0.40;;;0.20;;
34828;SDS011;21042;47.620;12.188;2024-02-23T03:44:27;1.17;;;0.20;;
34828;SDS011;21042;47.620;12.188;2024-02-23T03:46:54;2.92;;;0.20;;
34828;SDS011;21042;47.620;12.188;2024-02-23T03:49:21;0.40;;;0.20;;
34828;SDS011;21042;47.620;12.188;2024-02-23T03:51:47;0.30;;;0.00;;
34828;SDS011;21042;47.620;12.188;2024-02-23T03:54:14;0.20;;;0.00;;
34828;SDS011;21042;47.620;12.188;2024-02-23T03:56:41;0.08;;;0.08;;
34828;SDS011;21042;47.620;12.188;2024-02-23T03:59:09;1.65;;;0.10;;
34828;SDS011;21042;47.620;12.188;2024-02-23T04:01:37;0.00;;;0.00;;
34828;SDS011;21042;47.620;12.188;2024-02-23T04:04:05;0.75;;;0.10;;
34828;SDS011;21042;47.620;12.188;2024-02-23T04:06:33;0.35;;;0.13;;
34828;SDS011;21042;47.620;12.188;2024-02-23T04:09:01;1.95;;;0.20;;
34828;SDS011;21042;47.620;12.188;2024-02-23T04:11:31;2.42;;;0.15;;
34828;SDS011;21042;47.620;12.188;2024-02-23T04:13:58;0.32;;;0.10;;
34828;SDS011;21042;47.620;12.188;2024-02-23T04:16:27;0.75;;;0.10;;
34828;SDS011;21042;47.620;12.188;2024-02-23T04:18:54;0.90;;;0.15;;
34828;SDS011;21042;47.620;12.188;2024-02-23T04:21:21;2.95;;;0.20;;
34828;SDS011;21042;47.620;12.188;2024-02-23T04:23:48;1.85;;;0.20;;
34828;SDS011;21042;47.620;12.188;2024-02-23T04:26:14;1.67;;;0.10;;
34828;SDS011;21042;47.620;12.188;2024-02-23T04:28:42;0.60;;;0.10;;
34828;SDS011;21042;47.620;12.188;2024-02-23T04:31:09;1.05;;;0.30;;
34828;SDS011;21042;47.620;12.188;2024-02-23T04:36:03;1.23;;;0.20;;
34828;SDS011;21042;47.620;12.188;2024-02-23T04:38:31;0.20;;;0.05;;
34828;SDS011;21042;47.620;12.188;2024-02-23T04:43:28;0.22;;;0.10;;
34828;SDS011;21042;47.620;12.188;2024-02-23T04:45:55;0.40;;;0.10;;
34828;SDS011;21042;47.620;12.188;2024-02-23T04:48:21;1.25;;;0.52;;
34828;SDS011;21042;47.620;12.188;2024-02-23T04:50:48;1.20;;;0.10;;
34828;SDS011;21042;47.620;12.188;2024-02-23T04:53:15;4.53;;;0.10;;
34828;SDS011;21042;47.620;12.188;2024-02-23T04:55:42;0.25;;;0.10;;
34828;SDS011;21042;47.620;12.188;2024-02-23T04:58:09;2.20;;;0.00;;
34828;SDS011;21042;47.620;12.188;2024-02-23T05:00:35;0.50;;;0.08;;
34828;SDS011;21042;47.620;12.188;2024-02-23T05:03:02;2.03;;;0.00;;
34828;SDS011;21042;47.620;12.188;2024-02-23T05:05:30;0.00;;;0.00;;
34828;SDS011;21042;47.620;12.188;2024-02-23T05:07:58;0.00;;;0.00;;
34828;SDS011;21042;47.620;12.188;2024-02-23T05:10:25;0.55;;;0.10;;
34828;SDS011;21042;47.620;12.188;2024-02-23T05:12:53;0.30;;;0.20;;
34828;SDS011;21042;47.620;12.188;2024-02-23T05:15:19;2.35;;;0.45;;
34828;SDS011;21042;47.620;12.188;2024-02-23T05:20:14;1.60;;;0.70;;
34828;SDS011;21042;47.620;12.188;2024-02-23T05:22:41;1.10;;;0.70;;
34828;SDS011;21042;47.620;12.188;2024-02-23T05:25:08;0.50;;;0.32;;
34828;SDS011;21042;47.620;12.188;2024-02-23T05:27:35;4.63;;;0.63;;
34828;SDS011;21042;47.620;12.188;2024-02-23T05:30:02;0.30;;;0.17;;
34828;SDS011;21042;47.620;12.188;2024-02-23T05:32:29;1.45;;;0.20;;
34828;SDS011;21042;47.620;12.188;2024-02-23T05:34:56;0.90;;;0.10;;
34828;SDS011;21042;47.620;12.188;2024-02-23T05:37:23;3.67;;;0.20;;
34828;SDS011;21042;47.620;12.188;2024-02-23T05:39:50;0.63;;;0.20;;
34828;SDS011;21042;47.620;12.188;2024-02-23T05:42:18;0.40;;;0.30;;
34828;SDS011;21042;47.620;12.188;2024-02-23T05:44:44;0.98;;;0.63;;
34828;SDS011;21042;47.620;12.188;2024-02-23T05:49:40;1.90;;;0.80;;
34828;SDS011;21042;47.620;12.188;2024-02-23T05:52:07;5.72;;;0.75;;
34828;SDS011;21042;47.620;12.188;2024-02-23T05:54:34;1.85;;;0.55;;
34828;SDS011;21042;47.620;12.188;2024-02-23T05:57:01;0.45;;;0.32;;
34828;SDS011;21042;47.620;12.188;2024-02-23T05:59:29;1.55;;;0.20;;
34828;SDS011;21042;47.620;12.188;2024-02-23T06:01:56;0.20;;;0.10;;
34828;SDS011;21042;47.620;12.188;2024-02-23T06:04:26;2.88;;;0.25;;
34828;SDS011;21042;47.620;12.188;2024-02-23T06:06:53;0.47;;;0.20;;
34828;SDS011;21042;47.620;12.188;2024-02-23T06:09:20;0.60;;;0.20;;
34828;SDS011;21042;47.620;12.188;2024-02-23T06:11:48;1.42;;;0.20;;
34828;SDS011;21042;47.620;12.188;2024-02-23T06:14:15;2.20;;;0.30;;
34828;SDS011;21042;47.620;12.188;2024-02-23T06:16:42;3.28;;;0.95;;
34828;SDS011;21042;47.620;12.188;2024-02-23T06:19:09;2.72;;;0.52;;
34828;SDS011;21042;47.620;12.188;2024-02-23T06:21:35;1.02;;;0.50;;
34828;SDS011;21042;47.620;12.188;2024-02-23T06:26:31;3.15;;;0.35;;
34828;SDS011;21042;47.620;12.188;2024-02-23T06:28:58;0.73;;;0.35;;
34828;SDS011;21042;47.620;12.188;2024-02-23T06:31:25;4.25;;;0.43;;
34828;SDS011;21042;47.620;12.188;2024-02-23T06:33:52;1.50;;;0.50;;
34828;SDS011;21042;47.620;12.188;2024-02-23T06:36:19;0.47;;;0.40;;
34828;SDS011;21042;47.620;12.188;2024-02-23T06:38:46;0.65;;;0.30;;
34828;SDS011;21042;47.620;12.188;2024-02-23T06:41:12;0.30;;;0.10;;
34828;SDS011;21042;47.620;12.188;2024-02-23T06:43:39;0.60;;;0.17;;
34828;SDS011;21042;47.620;12.188;2024-02-23T06:46:07;0.57;;;0.22;;
34828;SDS011;21042;47.620;12.188;2024-02-23T06:48:35;0.68;;;0.30;;
34828;SDS011;21042;47.620;12.188;2024-02-23T06:51:03;0.20;;;0.10;;
34828;SDS011;21042;47.620;12.188;2024-02-23T06:53:31;1.17;;;0.20;;
34828;SDS011;21042;47.620;12.188;2024-02-23T06:55:58;0.10;;;0.10;;
34828;SDS011;21042;47.620;12.188;2024-02-23T07:00:52;1.77;;;0.10;;
34828;SDS011;21042;47.620;12.188;2024-02-23T07:03:19;0.17;;;0.13;;
34828;SDS011;21042;47.620;12.188;2024-02-23T07:05:46;0.10;;;0.10;;
34828;SDS011;21042;47.620;12.188;2024-02-23T07:08:14;3.35;;;0.10;;
34828;SDS011;21042;47.620;12.188;2024-02-23T07:10:41;1.33;;;0.10;;
34828;SDS011;21042;47.620;12.188;2024-02-23T07:13:08;0.82;;;0.08;;
34828;SDS011;21042;47.620;12.188;2024-02-23T07:15:35;0.22;;;0.10;;
34828;SDS011;21042;47.620;12.188;2024-02-23T07:18:02;0.22;;;0.22;;
34828;SDS011;21042;47.620;12.188;2024-02-23T07:22:56;0.43;;;0.10;;
34828;SDS011;21042;47.620;12.188;2024-02-23T07:25:23;1.10;;;0.15;;
34828;SDS011;21042;47.620;12.188;2024-02-23T07:27:50;0.32;;;0.20;;
34828;SDS011;21042;47.620;12.188;2024-02-23T07:30:17;0.15;;;0.10;;
34828;SDS011;21042;47.620;12.188;2024-02-23T07:32:44;0.17;;;0.10;;
34828;SDS011;21042;47.620;12.188;2024-02-23T07:35:18;0.20;;;0.20;;
34828;SDS011;21042;47.620;12.188;2024-02-23T07:40:12;1.63;;;0.20;;
34828;SDS011;21042;47.620;12.188;2024-02-23T07:42:41;0.20;;;0.15;;
34828;SDS011;21042;47.620;12.188;2024-02-23T07:45:08;0.20;;;0.10;;
34828;SDS011;21042;47.620;12.188;2024-02-23T07:47:36;1.38;;;0.20;;
34828;SDS011;21042;47.620;12.188;2024-02-23T07:50:04;0.95;;;0.25;;
34828;SDS011;21042;47.620;12.188;2024-02-23T07:52:31;0.20;;;0.20;;
34828;SDS011;21042;47.620;12.188;2024-02-23T07:54:58;0.17;;;0.17;;
34828;SDS011;21042;47.620;12.188;2024-02-23T07:57:26;0.60;;;0.20;;
34828;SDS011;21042;47.620;12.188;2024-02-23T07:59:53;0.57;;;0.20;;
34828;SDS011;21042;47.620;12.188;2024-02-23T08:02:20;0.68;;;0.20;;
34828;SDS011;21042;47.620;12.188;2024-02-23T08:04:47;0.93;;;0.30;;
34828;SDS011;21042;47.620;12.188;2024-02-23T08:07:16;0.45;;;0.13;;
34828;SDS011;21042;47.620;12.188;2024-02-23T08:09:43;1.27;;;0.20;;
34828;SDS011;21042;47.620;12.188;2024-02-23T08:14:40;0.40;;;0.10;;
34828;SDS011;21042;47.620;12.188;2024-02-23T08:19:34;0.10;;;0.10;;
34828;SDS011;21042;47.620;12.188;2024-02-23T08:22:01;0.20;;;0.20;;
34828;SDS011;21042;47.620;12.188;2024-02-23T08:24:28;1.67;;;0.20;;
34828;SDS011;21042;47.620;12.188;2024-02-23T08:26:54;0.63;;;0.10;;
34828;SDS011;21042;47.620;12.188;2024-02-23T08:29:21;0.20;;;0.17;;
34828;SDS011;21042;47.620;12.188;2024-02-23T08:31:48;0.98;;;0.20;;
34828;SDS011;21042;47.620;12.188;2024-02-23T08:34:15;2.17;;;0.15;;
34828;SDS011;21042;47.620;12.188;2024-02-23T08:36:43;0.40;;;0.20;;
34828;SDS011;21042;47.620;12.188;2024-02-23T08:39:10;2.38;;;0.20;;
34828;SDS011;21042;47.620;12.188;2024-02-23T08:41:37;1.10;;;0.20;;
34828;SDS011;21042;47.620;12.188;2024-02-23T08:44:05;0.20;;;0.10;;
34828;SDS011;21042;47.620;12.188;2024-02-23T08:46:32;0.20;;;0.20;;
34828;SDS011;21042;47.620;12.188;2024-02-23T08:48:59;0.30;;;0.20;;
34828;SDS011;21042;47.620;12.188;2024-02-23T08:51:26;0.73;;;0.35;;
34828;SDS011;21042;47.620;12.188;2024-02-23T08:53:52;4.18;;;0.30;;
34828;SDS011;21042;47.620;12.188;2024-02-23T08:56:21;0.28;;;0.20;;
34828;SDS011;21042;47.620;12.188;2024-02-23T08:58:48;0.43;;;0.10;;
34828;SDS011;21042;47.620;12.188;2024-02-23T09:01:14;0.70;;;0.38;;
34828;SDS011;21042;47.620;12.188;2024-02-23T09:03:41;1.77;;;0.30;;
34828;SDS011;21042;47.620;12.188;2024-02-23T09:06:08;2.08;;;0.40;;
34828;SDS011;21042;47.620;12.188;2024-02-23T09:08:35;2.45;;;0.13;;
34828;SDS011;21042;47.620;12.188;2024-02-23T09:11:02;0.88;;;0.30;;
34828;SDS011;21042;47.620;12.188;2024-02-23T09:13:29;1.48;;;0.30;;
34828;SDS011;21042;47.620;12.188;2024-02-23T09:15:56;1.08;;;0.25;;
34828;SDS011;21042;47.620;12.188;2024-02-23T09:18:23;0.50;;;0.38;;
34828;SDS011;21042;47.620;12.188;2024-02-23T09:20:50;0.60;;;0.15;;
34828;SDS011;21042;47.620;12.188;2024-02-23T09:25:44;1.15;;;0.30;;
34828;SDS011;21042;47.620;12.188;2024-02-23T09:28:11;0.28;;;0.08;;
34828;SDS011;21042;47.620;12.188;2024-02-23T09:30:38;1.48;;;0.30;;
34828;SDS011;21042;47.620;12.188;2024-02-23T09:33:05;1.98;;;0.40;;
34828;SDS011;21042;47.620;12.188;2024-02-23T09:35:32;0.35;;;0.20;;
34828;SDS011;21042;47.620;12.188;2024-02-23T09:37:59;0.45;;;0.20;;
34828;SDS011;21042;47.620;12.188;2024-02-23T09:40:26;0.98;;;0.25;;
34828;SDS011;21042;47.620;12.188;2024-02-23T09:42:57;2.20;;;0.30;;
34828;SDS011;21042;47.620;12.188;2024-02-23T09:45:25;1.77;;;0.40;;
34828;SDS011;21042;47.620;12.188;2024-02-23T09:47:56;0.70;;;0.25;;
34828;SDS011;21042;47.620;12.188;2024-02-23T09:50:24;0.75;;;0.32;;
34828;SDS011;21042;47.620;12.188;2024-02-23T09:52:51;2.58;;;0.30;;
34828;SDS011;21042;47.620;12.188;2024-02-23T10:00:17;0.30;;;0.30;;
34828;SDS011;21042;47.620;12.188;2024-02-23T10:02:44;1.83;;;0.22;;
34828;SDS011;21042;47.620;12.188;2024-02-23T10:07:39;1.83;;;0.63;;
34828;SDS011;21042;47.620;12.188;2024-02-23T10:10:07;1.20;;;0.50;;
34828;SDS011;21042;47.620;12.188;2024-02-23T10:12:35;1.95;;;0.50;;
34828;SDS011;21042;47.620;12.188;2024-02-23T10:15:02;2.05;;;0.30;;
34828;SDS011;21042;47.620;12.188;2024-02-23T10:17:32;0.73;;;0.30;;
34828;SDS011;21042;47.620;12.188;2024-02-23T10:20:02;0.73;;;0.22;;
34828;SDS011;21042;47.620;12.188;2024-02-23T10:22:31;0.73;;;0.25;;
34828;SDS011;21042;47.620;12.188;2024-02-23T10:24:58;0.95;;;0.28;;
34828;SDS011;21042;47.620;12.188;2024-02-23T10:27:26;0.43;;;0.08;;
34828;SDS011;21042;47.620;12.188;2024-02-23T10:29:54;0.70;;;0.20;;
34828;SDS011;21042;47.620;12.188;2024-02-23T10:32:21;1.88;;;0.38;;
34828;SDS011;21042;47.620;12.188;2024-02-23T10:34:49;1.17;;;1.08;;
34828;SDS011;21042;47.620;12.188;2024-02-23T10:37:18;0.45;;;0.30;;
34828;SDS011;21042;47.620;12.188;2024-02-23T10:39:45;0.32;;;0.10;;
34828;SDS011;21042;47.620;12.188;2024-02-23T10:44:40;0.55;;;0.20;;
34828;SDS011;21042;47.620;12.188;2024-02-23T10:47:07;2.83;;;0.30;;
34828;SDS011;21042;47.620;12.188;2024-02-23T10:49:35;2.10;;;0.70;;
34828;SDS011;21042;47.620;12.188;2024-02-23T10:52:04;0.52;;;0.30;;
34828;SDS011;21042;47.620;12.188;2024-02-23T10:54:32;4.22;;;0.43;;
34828;SDS011;21042;47.620;12.188;2024-02-23T10:57:00;1.35;;;0.30;;
34828;SDS011;21042;47.620;12.188;2024-02-23T10:59:28;1.85;;;0.30;;
34828;SDS011;21042;47.620;12.188;2024-02-23T11:01:55;1.50;;;0.50;;
34828;SDS011;21042;47.620;12.188;2024-02-23T11:04:26;0.70;;;0.22;;
34828;SDS011;21042;47.620;12.188;2024-02-23T11:06:54;7.40;;;0.75;;
34828;SDS011;21042;47.620;12.188;2024-02-23T11:09:24;3.67;;;0.40;;
34828;SDS011;21042;47.620;12.188;2024-02-23T11:11:52;0.40;;;0.30;;
34828;SDS011;21042;47.620;12.188;2024-02-23T11:14:34;0.30;;;0.20;;
34828;SDS011;21042;47.620;12.188;2024-02-23T11:19:34;0.85;;;0.40;;
34828;SDS011;21042;47.620;12.188;2024-02-23T11:22:03;1.95;;;0.25;;
34828;SDS011;21042;47.620;12.188;2024-02-23T11:24:31;1.30;;;0.45;;
34828;SDS011;21042;47.620;12.188;2024-02-23T11:26:59;0.93;;;0.20;;
34828;SDS011;21042;47.620;12.188;2024-02-23T11:29:34;2.75;;;0.30;;
34828;SDS011;21042;47.620;12.188;2024-02-23T11:32:03;4.30;;;0.75;;
34828;SDS011;21042;47.620;12.188;2024-02-23T11:34:30;1.58;;;0.47;;
34828;SDS011;21042;47.620;12.188;2024-02-23T11:36:57;2.20;;;0.52;;
34828;SDS011;21042;47.620;12.188;2024-02-23T11:39:33;0.45;;;0.30;;
34828;SDS011;21042;47.620;12.188;2024-02-23T11:42:04;2.30;;;0.50;;
34828;SDS011;21042;47.620;12.188;2024-02-23T11:44:31;2.13;;;0.50;;
34828;SDS011;21042;47.620;12.188;2024-02-23T11:46:58;1.77;;;0.55;;
34828;SDS011;21042;47.620;12.188;2024-02-23T11:49:29;3.35;;;0.30;;
34828;SDS011;21042;47.620;12.188;2024-02-23T11:51:56;0.90;;;0.55;;
34828;SDS011;21042;47.620;12.188;2024-02-23T11:54:23;2.08;;;0.60;;
34828;SDS011;21042;47.620;12.188;2024-02-23T11:56:50;3.15;;;0.90;;
34828;SDS011;21042;47.620;12.188;2024-02-23T11:59:19;2.80;;;0.80;;
34828;SDS011;21042;47.620;12.188;2024-02-23T12:01:47;3.25;;;0.43;;
34828;SDS011;21042;47.620;12.188;2024-02-23T12:04:14;1.95;;;0.60;;
34828;SDS011;21042;47.620;12.188;2024-02-23T12:06:42;2.45;;;0.50;;
34828;SDS011;21042;47.620;12.188;2024-02-23T12:09:09;3.15;;;0.73;;
34828;SDS011;21042;47.620;12.188;2024-02-23T12:11:38;1.48;;;0.68;;
34828;SDS011;21042;47.620;12.188;2024-02-23T12:14:06;2.10;;;0.68;;
34828;SDS011;21042;47.620;12.188;2024-02-23T12:16:35;2.67;;;0.70;;
34828;SDS011;21042;47.620;12.188;2024-02-23T12:19:02;0.45;;;0.43;;
34828;SDS011;21042;47.620;12.188;2024-02-23T12:21:29;2.08;;;0.90;;
34828;SDS011;21042;47.620;12.188;2024-02-23T12:23:56;3.60;;;1.00;;
34828;SDS011;21042;47.620;12.188;2024-02-23T12:26:23;2.00;;;0.90;;
34828;SDS011;21042;47.620;12.188;2024-02-23T12:28:50;1.85;;;1.00;;
34828;SDS011;21042;47.620;12.188;2024-02-23T12:31:23;2.83;;;1.40;;
34828;SDS011;21042;47.620;12.188;2024-02-23T12:33:51;2.40;;;1.15;;
34828;SDS011;21042;47.620;12.188;2024-02-23T12:36:18;2.10;;;1.20;;
34828;SDS011;21042;47.620;12.188;2024-02-23T12:38:45;2.63;;;1.40;;
34828;SDS011;21042;47.620;12.188;2024-02-23T12:41:12;3.55;;;1.83;;
34828;SDS011;21042;47.620;12.188;2024-02-23T12:43:39;3.50;;;1.17;;
34828;SDS011;21042;47.620;12.188;2024-02-23T12:46:08;2.05;;;1.40;;
34828;SDS011;21042;47.620;12.188;2024-02-23T12:48:35;2.05;;;1.33;;
34828;SDS011;21042;47.620;12.188;2024-02-23T12:51:02;4.38;;;1.60;;
34828;SDS011;21042;47.620;12.188;2024-02-23T12:56:01;2.92;;;1.30;;
34828;SDS011;21042;47.620;12.188;2024-02-23T12:58:29;3.40;;;1.67;;
34828;SDS011;21042;47.620;12.188;2024-02-23T13:00:56;3.03;;;2.03;;
34828;SDS011;21042;47.620;12.188;2024-02-23T13:03:24;1.90;;;1.50;;
34828;SDS011;21042;47.620;12.188;2024-02-23T13:05:53;1.10;;;0.80;;
34828;SDS011;21042;47.620;12.188;2024-02-23T13:08:21;21.55;;;6.60;;
34828;SDS011;21042;47.620;12.188;2024-02-23T13:10:49;20.42;;;10.05;;
34828;SDS011;21042;47.620;12.188;2024-02-23T13:13:17;12.00;;;6.47;;
34828;SDS011;21042;47.620;12.188;2024-02-23T13:15:45;12.45;;;6.35;;
34828;SDS011;21042;47.620;12.188;2024-02-23T13:18:13;7.45;;;5.00;;
34828;SDS011;21042;47.620;12.188;2024-02-23T13:20:40;3.38;;;2.33;;
34828;SDS011;21042;47.620;12.188;2024-02-23T13:23:10;1.05;;;0.90;;
34828;SDS011;21042;47.620;12.188;2024-02-23T13:25:38;4.25;;;2.10;;
34828;SDS011;21042;47.620;12.188;2024-02-23T13:28:06;25.90;;;9.65;;
34828;SDS011;21042;47.620;12.188;2024-02-23T13:30:34;21.08;;;9.20;;
34828;SDS011;21042;47.620;12.188;2024-02-23T13:33:02;24.92;;;10.55;;
34828;SDS011;21042;47.620;12.188;2024-02-23T13:35:29;28.02;;;13.02;;
34828;SDS011;21042;47.620;12.188;2024-02-23T13:37:56;24.67;;;11.73;;
34828;SDS011;21042;47.620;12.188;2024-02-23T13:40:26;25.40;;;12.23;;
34828;SDS011;21042;47.620;12.188;2024-02-23T13:42:53;17.30;;;8.75;;
34828;SDS011;21042;47.620;12.188;2024-02-23T13:45:20;18.48;;;9.23;;
34828;SDS011;21042;47.620;12.188;2024-02-23T13:48:02;18.40;;;9.27;;
34828;SDS011;21042;47.620;12.188;2024-02-23T13:50:31;20.33;;;9.77;;
34828;SDS011;21042;47.620;12.188;2024-02-23T13:53:01;21.05;;;10.02;;
34828;SDS011;21042;47.620;12.188;2024-02-23T13:55:28;19.65;;;9.50;;
34828;SDS011;21042;47.620;12.188;2024-02-23T13:57:55;14.75;;;7.60;;
34828;SDS011;21042;47.620;12.188;2024-02-23T14:00:21;11.77;;;5.90;;
34828;SDS011;21042;47.620;12.188;2024-02-23T14:02:48;10.55;;;5.45;;
34828;SDS011;21042;47.620;12.188;2024-02-23T14:05:15;11.23;;;6.03;;
34828;SDS011;21042;47.620;12.188;2024-02-23T14:07:44;10.38;;;4.60;;
34828;SDS011;21042;47.620;12.188;2024-02-23T14:10:11;10.45;;;5.25;;
34828;SDS011;21042;47.620;12.188;2024-02-23T14:12:38;13.27;;;6.53;;
34828;SDS011;21042;47.620;12.188;2024-02-23T14:15:05;9.82;;;5.15;;
34828;SDS011;21042;47.620;12.188;2024-02-23T14:17:32;15.75;;;7.07;;
34828;SDS011;21042;47.620;12.188;2024-02-23T14:20:01;21.10;;;9.63;;
34828;SDS011;21042;47.620;12.188;2024-02-23T14:22:29;28.40;;;11.88;;
34828;SDS011;21042;47.620;12.188;2024-02-23T14:24:57;25.23;;;11.77;;
34828;SDS011;21042;47.620;12.188;2024-02-23T14:27:24;65.13;;;25.42;;
34828;SDS011;21042;47.620;12.188;2024-02-23T14:29:56;37.47;;;17.23;;
34828;SDS011;21042;47.620;12.188;2024-02-23T14:32:23;20.60;;;11.35;;
34828;SDS011;21042;47.620;12.188;2024-02-23T14:34:50;22.58;;;10.23;;
34828;SDS011;21042;47.620;12.188;2024-02-23T14:37:17;18.45;;;10.23;;
34828;SDS011;21042;47.620;12.188;2024-02-23T14:39:44;26.58;;;13.82;;
34828;SDS011;21042;47.620;12.188;2024-02-23T14:42:13;25.10;;;14.57;;
34828;SDS011;21042;47.620;12.188;2024-02-23T14:44:40;24.05;;;13.50;;
34828;SDS011;21042;47.620;12.188;2024-02-23T14:47:07;24.13;;;11.65;;
34828;SDS011;21042;47.620;12.188;2024-02-23T14:49:34;23.35;;;11.70;;
34828;SDS011;21042;47.620;12.188;2024-02-23T14:52:00;10.68;;;6.10;;
34828;SDS011;21042;47.620;12.188;2024-02-23T14:54:27;13.70;;;7.18;;
34828;SDS011;21042;47.620;12.188;2024-02-23T14:56:55;19.33;;;8.82;;
34828;SDS011;21042;47.620;12.188;2024-02-23T14:59:22;15.52;;;8.32;;
34828;SDS011;21042;47.620;12.188;2024-02-23T15:01:49;18.27;;;10.10;;
34828;SDS011;21042;47.620;12.188;2024-02-23T15:04:16;12.75;;;6.28;;
34828;SDS011;21042;47.620;12.188;2024-02-23T15:06:44;14.25;;;8.25;;
34828;SDS011;21042;47.620;12.188;2024-02-23T15:09:11;22.15;;;11.15;;
34828;SDS011;21042;47.620;12.188;2024-02-23T15:11:38;17.75;;;10.07;;
34828;SDS011;21042;47.620;12.188;2024-02-23T15:14:05;23.38;;;10.75;;
34828;SDS011;21042;47.620;12.188;2024-02-23T15:16:32;18.48;;;8.88;;
34828;SDS011;21042;47.620;12.188;2024-02-23T15:18:59;19.10;;;8.73;;
34828;SDS011;21042;47.620;12.188;2024-02-23T15:21:26;13.57;;;7.70;;
34828;SDS011;21042;47.620;12.188;2024-02-23T15:26:20;16.67;;;7.13;;
34828;SDS011;21042;47.620;12.188;2024-02-23T15:28:47;12.80;;;7.55;;